KYKM Airport Information

Runway Information
Runway 04 Length 3835 ft width 150 ft
Elevation 1073 ft Threshold 0 ft Heading 60
Runway 22 Length 3835 ft Width 150 ft
Elevation 1052 ft Threshold 0 ft Heading 240
Runway 09 Length 7603 ft width 150 ft
Elevation 1095 ft Threshold 0 ft Heading 110
Runway 27 Length 7603 ft Width 150 ft
Elevation 1045 ft Threshold 0 ft Heading 290
Airport Frequencies
Type A/D Name CHINOOK AP Frequency 123.8 MHZ
Type ATIS Name ATIS Frequency 125.25 MHZ
Type CLD Name CLNC DEL Frequency 121.9 MHZ
Type CTAF Name CTAF Frequency 133.25 MHZ
Type GND Name GND Frequency 121.9 MHZ
Type RDO Name SEATTLE RD Frequency 122.5 MHZ
Type TWR Name TWR Frequency 133.25 MHZ
Type UNIC Name UNICOM Frequency 122.95 MHZ
Airport Navaids
Type NDB Name Donny Frequency 371 KHZ
Airport Weather Information & NOTAM
ADDS - METARS form results

(1451 UTC 20 April 2018)
Data provider http://aviationweather.gov/adds/metars/
 
METAR text: KYKM 201353Z 28007KT 10SM CLR 03/M01 A3021 RMK AO2 SLP233 T00331011
Conditions at: KYKM (YAKIMA , WA, US) observed 1353 UTC 20 April 2018
Temperature: 3.3°C (38°F)
Dewpoint: -1.1°C (30°F) [RH = 73%]
Pressure (altimeter): 30.21 inches Hg (1023.1 mb)
[Sea-level pressure: 1023.3 mb]
Winds: from the W (280 degrees) at 8 MPH (7 knots; 3.6 m/s)
Visibility: 10 or more miles (16+ km)
Ceiling: at least 12,000 feet AGL
Clouds: sky clear below 12,000 feet AGL
Weather: no significant weather observed at this time

Forecast for: KYKM (YAKIMA , WA, US)
Text: KYKM 201120Z 2012/2112 VRB04KT P6SM SCT250
Forecast period: 1200 to 1600 UTC 20 April 2018
Forecast type: FROM: standard forecast or significant change
Winds: variable direction winds at 5 MPH (4 knots; 2.1 m/s)
Visibility: 6 or more miles (10+ km)
Clouds: scattered clouds at 25000 feet AGL
Weather: no significant weather forecast for this period
Forecast for: KYKM (YAKIMA , WA, US)
Text: KYKM 201120Z 2012/2112 VRB04KT P6SM SCT250
Forecast period: 1200 to 1600 UTC 20 April 2018
Forecast type: FROM: standard forecast or significant change
Winds: variable direction winds at 5 MPH (4 knots; 2.1 m/s)
Visibility: 6 or more miles (10+ km)
Clouds: scattered clouds at 25000 feet AGL
Weather: no significant weather forecast for this period
Forecast for: KYKM (YAKIMA , WA, US)
Text: KYKM 201120Z 2012/2112 VRB04KT P6SM SCT250
Forecast period: 1600 UTC 20 April 2018 to 0600 UTC 21 April 2018
Forecast type: FROM: standard forecast or significant change
Winds: variable direction winds at 6 MPH (5 knots; 2.6 m/s)
Visibility: 6 or more miles (10+ km)
Clouds: scattered clouds at 20000 feet AGL
Weather: no significant weather forecast for this period
Forecast for: KYKM (YAKIMA , WA, US)
Text: KYKM 201120Z 2012/2112 VRB04KT P6SM SCT250
Forecast period: 1600 UTC 20 April 2018 to 0600 UTC 21 April 2018
Forecast type: FROM: standard forecast or significant change
Winds: variable direction winds at 6 MPH (5 knots; 2.6 m/s)
Visibility: 6 or more miles (10+ km)
Clouds: scattered clouds at 20000 feet AGL
Weather: no significant weather forecast for this period
Forecast for: KYKM (YAKIMA , WA, US)
Text: KYKM 201120Z 2012/2112 VRB04KT P6SM SCT250
Forecast period: 0600 to 1200 UTC 21 April 2018
Forecast type: FROM: standard forecast or significant change
Winds: from the W (280 degrees) at 7 MPH (6 knots; 3.1 m/s)
Visibility: 6 or more miles (10+ km)
Ceiling: 15000 feet AGL
Clouds: broken clouds at 15000 feet AGL
Weather: no significant weather forecast for this period
Forecast for: KYKM (YAKIMA , WA, US)
Text: KYKM 201120Z 2012/2112 VRB04KT P6SM SCT250
Forecast period: 0600 to 1200 UTC 21 April 2018
Forecast type: FROM: standard forecast or significant change
Winds: from the W (280 degrees) at 7 MPH (6 knots; 3.1 m/s)
Visibility: 6 or more miles (10+ km)
Ceiling: 15000 feet AGL
Clouds: broken clouds at 15000 feet AGL
Weather: no significant weather forecast for this period